sensor_id;sensor_type;location;lat;lon;timestamp;P1;durP1;ratioP1;P2;durP2;ratioP2
13967;SDS011;39536;52.198;9.920;2023-08-06T00:01:15;3.17;;;2.97;;
13967;SDS011;39536;52.198;9.920;2023-08-06T00:03:43;5.93;;;3.73;;
13967;SDS011;39536;52.198;9.920;2023-08-06T00:06:11;4.13;;;3.73;;
13967;SDS011;39536;52.198;9.920;2023-08-06T00:08:38;3.70;;;3.50;;
13967;SDS011;39536;52.198;9.920;2023-08-06T00:11:05;3.77;;;3.47;;
13967;SDS011;39536;52.198;9.920;2023-08-06T00:13:31;5.17;;;3.50;;
13967;SDS011;39536;52.198;9.920;2023-08-06T00:16:07;4.63;;;3.27;;
13967;SDS011;39536;52.198;9.920;2023-08-06T00:18:35;5.20;;;3.60;;
13967;SDS011;39536;52.198;9.920;2023-08-06T00:21:02;5.50;;;3.30;;
13967;SDS011;39536;52.198;9.920;2023-08-06T00:23:30;5.23;;;3.43;;
13967;SDS011;39536;52.198;9.920;2023-08-06T00:25:56;4.00;;;3.67;;
13967;SDS011;39536;52.198;9.920;2023-08-06T00:28:23;6.03;;;3.50;;
13967;SDS011;39536;52.198;9.920;2023-08-06T00:30:52;4.30;;;4.00;;
13967;SDS011;39536;52.198;9.920;2023-08-06T00:33:19;5.43;;;3.73;;
13967;SDS011;39536;52.198;9.920;2023-08-06T00:35:47;3.60;;;3.30;;
13967;SDS011;39536;52.198;9.920;2023-08-06T00:38:14;4.10;;;3.80;;
13967;SDS011;39536;52.198;9.920;2023-08-06T00:40:42;3.10;;;2.90;;
13967;SDS011;39536;52.198;9.920;2023-08-06T00:43:09;4.00;;;3.70;;
13967;SDS011;39536;52.198;9.920;2023-08-06T00:45:36;3.87;;;3.60;;
13967;SDS011;39536;52.198;9.920;2023-08-06T00:48:03;4.90;;;4.33;;
13967;SDS011;39536;52.198;9.920;2023-08-06T00:50:31;3.80;;;3.60;;
13967;SDS011;39536;52.198;9.920;2023-08-06T00:52:58;4.13;;;3.87;;
13967;SDS011;39536;52.198;9.920;2023-08-06T00:55:26;3.80;;;3.60;;
13967;SDS011;39536;52.198;9.920;2023-08-06T00:57:54;5.67;;;4.00;;
13967;SDS011;39536;52.198;9.920;2023-08-06T01:00:22;4.50;;;4.10;;
13967;SDS011;39536;52.198;9.920;2023-08-06T01:02:50;4.90;;;3.73;;
13967;SDS011;39536;52.198;9.920;2023-08-06T01:05:16;5.67;;;4.00;;
13967;SDS011;39536;52.198;9.920;2023-08-06T01:07:45;4.70;;;4.20;;
13967;SDS011;39536;52.198;9.920;2023-08-06T01:10:23;3.73;;;3.43;;
13967;SDS011;39536;52.198;9.920;2023-08-06T01:13:00;3.57;;;3.37;;
13967;SDS011;39536;52.198;9.920;2023-08-06T01:15:32;4.80;;;4.03;;
13967;SDS011;39536;52.198;9.920;2023-08-06T01:18:06;6.67;;;3.50;;
13967;SDS011;39536;52.198;9.920;2023-08-06T01:20:34;5.33;;;3.57;;
13967;SDS011;39536;52.198;9.920;2023-08-06T01:23:00;6.13;;;3.93;;
13967;SDS011;39536;52.198;9.920;2023-08-06T01:25:30;3.97;;;3.07;;
13967;SDS011;39536;52.198;9.920;2023-08-06T01:28:01;3.87;;;3.57;;
13967;SDS011;39536;52.198;9.920;2023-08-06T01:30:31;3.77;;;3.47;;
13967;SDS011;39536;52.198;9.920;2023-08-06T01:33:01;8.37;;;3.93;;
13967;SDS011;39536;52.198;9.920;2023-08-06T01:35:30;6.53;;;4.03;;
13967;SDS011;39536;52.198;9.920;2023-08-06T01:38:00;6.47;;;4.47;;
13967;SDS011;39536;52.198;9.920;2023-08-06T01:40:27;4.40;;;3.93;;
13967;SDS011;39536;52.198;9.920;2023-08-06T01:42:54;5.10;;;4.07;;
13967;SDS011;39536;52.198;9.920;2023-08-06T01:45:21;7.60;;;4.50;;
13967;SDS011;39536;52.198;9.920;2023-08-06T01:47:48;5.97;;;4.27;;
13967;SDS011;39536;52.198;9.920;2023-08-06T01:50:14;9.00;;;4.27;;
13967;SDS011;39536;52.198;9.920;2023-08-06T01:52:41;5.40;;;4.33;;
13967;SDS011;39536;52.198;9.920;2023-08-06T01:55:09;4.43;;;4.03;;
13967;SDS011;39536;52.198;9.920;2023-08-06T01:57:36;7.00;;;3.97;;
13967;SDS011;39536;52.198;9.920;2023-08-06T02:00:03;4.40;;;3.80;;
13967;SDS011;39536;52.198;9.920;2023-08-06T02:02:30;4.63;;;4.20;;
13967;SDS011;39536;52.198;9.920;2023-08-06T02:04:56;9.27;;;4.07;;
13967;SDS011;39536;52.198;9.920;2023-08-06T02:07:24;19.47;;;4.73;;
13967;SDS011;39536;52.198;9.920;2023-08-06T02:09:50;4.67;;;4.27;;
13967;SDS011;39536;52.198;9.920;2023-08-06T02:12:18;5.13;;;4.20;;
13967;SDS011;39536;52.198;9.920;2023-08-06T02:14:45;8.63;;;3.70;;
13967;SDS011;39536;52.198;9.920;2023-08-06T02:17:12;5.40;;;4.37;;
13967;SDS011;39536;52.198;9.920;2023-08-06T02:19:38;4.77;;;3.73;;
13967;SDS011;39536;52.198;9.920;2023-08-06T02:22:05;8.27;;;4.13;;
13967;SDS011;39536;52.198;9.920;2023-08-06T02:24:32;4.63;;;4.23;;
13967;SDS011;39536;52.198;9.920;2023-08-06T02:26:59;6.53;;;4.20;;
13967;SDS011;39536;52.198;9.920;2023-08-06T02:29:27;4.77;;;4.37;;
13967;SDS011;39536;52.198;9.920;2023-08-06T02:31:53;4.87;;;4.00;;
13967;SDS011;39536;52.198;9.920;2023-08-06T02:34:20;5.53;;;4.50;;
13967;SDS011;39536;52.198;9.920;2023-08-06T02:36:47;4.67;;;4.27;;
13967;SDS011;39536;52.198;9.920;2023-08-06T02:39:13;6.07;;;4.37;;
13967;SDS011;39536;52.198;9.920;2023-08-06T02:41:40;5.43;;;4.30;;
13967;SDS011;39536;52.198;9.920;2023-08-06T02:44:07;11.77;;;4.43;;
13967;SDS011;39536;52.198;9.920;2023-08-06T02:46:35;3.93;;;3.73;;
13967;SDS011;39536;52.198;9.920;2023-08-06T02:49:01;5.53;;;4.03;;
13967;SDS011;39536;52.198;9.920;2023-08-06T02:51:28;4.83;;;4.47;;
13967;SDS011;39536;52.198;9.920;2023-08-06T02:53:55;4.50;;;4.10;;
13967;SDS011;39536;52.198;9.920;2023-08-06T02:56:21;5.07;;;3.90;;
13967;SDS011;39536;52.198;9.920;2023-08-06T02:58:48;5.17;;;4.60;;
13967;SDS011;39536;52.198;9.920;2023-08-06T03:01:15;7.00;;;4.30;;
13967;SDS011;39536;52.198;9.920;2023-08-06T03:03:43;5.00;;;4.60;;
13967;SDS011;39536;52.198;9.920;2023-08-06T03:06:10;4.73;;;3.97;;
13967;SDS011;39536;52.198;9.920;2023-08-06T03:08:36;4.73;;;4.33;;
13967;SDS011;39536;52.198;9.920;2023-08-06T03:11:03;5.47;;;4.40;;
13967;SDS011;39536;52.198;9.920;2023-08-06T03:13:30;4.20;;;3.90;;
13967;SDS011;39536;52.198;9.920;2023-08-06T03:15:57;4.60;;;4.20;;
13967;SDS011;39536;52.198;9.920;2023-08-06T03:18:25;5.30;;;4.83;;
13967;SDS011;39536;52.198;9.920;2023-08-06T03:20:53;5.60;;;4.00;;
13967;SDS011;39536;52.198;9.920;2023-08-06T03:23:20;4.50;;;4.20;;
13967;SDS011;39536;52.198;9.920;2023-08-06T03:25:47;4.97;;;4.17;;
13967;SDS011;39536;52.198;9.920;2023-08-06T03:28:14;5.40;;;4.90;;
13967;SDS011;39536;52.198;9.920;2023-08-06T03:30:40;5.30;;;4.80;;
13967;SDS011;39536;52.198;9.920;2023-08-06T03:33:07;4.73;;;4.27;;
13967;SDS011;39536;52.198;9.920;2023-08-06T03:35:34;4.63;;;4.23;;
13967;SDS011;39536;52.198;9.920;2023-08-06T03:38:02;4.77;;;4.30;;
13967;SDS011;39536;52.198;9.920;2023-08-06T03:40:28;5.00;;;4.60;;
13967;SDS011;39536;52.198;9.920;2023-08-06T03:42:55;5.07;;;4.77;;
13967;SDS011;39536;52.198;9.920;2023-08-06T03:45:22;6.50;;;4.53;;
13967;SDS011;39536;52.198;9.920;2023-08-06T03:47:48;5.40;;;5.00;;
13967;SDS011;39536;52.198;9.920;2023-08-06T03:50:15;5.27;;;4.87;;
13967;SDS011;39536;52.198;9.920;2023-08-06T03:52:42;5.03;;;4.73;;
13967;SDS011;39536;52.198;9.920;2023-08-06T03:55:10;5.40;;;5.00;;
13967;SDS011;39536;52.198;9.920;2023-08-06T03:57:37;5.10;;;4.67;;
13967;SDS011;39536;52.198;9.920;2023-08-06T04:00:03;5.33;;;4.87;;
13967;SDS011;39536;52.198;9.920;2023-08-06T04:02:31;5.37;;;4.97;;
13967;SDS011;39536;52.198;9.920;2023-08-06T04:04:57;5.30;;;5.00;;
13967;SDS011;39536;52.198;9.920;2023-08-06T04:07:25;5.50;;;5.00;;
13967;SDS011;39536;52.198;9.920;2023-08-06T04:09:52;5.67;;;5.10;;
13967;SDS011;39536;52.198;9.920;2023-08-06T04:12:21;14.20;;;5.30;;
13967;SDS011;39536;52.198;9.920;2023-08-06T04:14:48;6.20;;;5.63;;
13967;SDS011;39536;52.198;9.920;2023-08-06T04:17:16;5.83;;;5.40;;
13967;SDS011;39536;52.198;9.920;2023-08-06T04:19:45;6.20;;;5.70;;
13967;SDS011;39536;52.198;9.920;2023-08-06T04:22:12;6.70;;;5.97;;
13967;SDS011;39536;52.198;9.920;2023-08-06T04:24:39;8.70;;;5.90;;
13967;SDS011;39536;52.198;9.920;2023-08-06T04:27:06;6.60;;;6.00;;
13967;SDS011;39536;52.198;9.920;2023-08-06T04:29:34;13.37;;;6.73;;
13967;SDS011;39536;52.198;9.920;2023-08-06T04:32:01;7.13;;;6.43;;
13967;SDS011;39536;52.198;9.920;2023-08-06T04:34:27;8.20;;;6.63;;
13967;SDS011;39536;52.198;9.920;2023-08-06T04:36:54;7.77;;;6.93;;
13967;SDS011;39536;52.198;9.920;2023-08-06T04:39:21;11.10;;;6.47;;
13967;SDS011;39536;52.198;9.920;2023-08-06T04:41:48;6.60;;;5.83;;
13967;SDS011;39536;52.198;9.920;2023-08-06T04:44:14;6.27;;;5.67;;
13967;SDS011;39536;52.198;9.920;2023-08-06T04:46:42;6.60;;;5.87;;
13967;SDS011;39536;52.198;9.920;2023-08-06T04:49:09;13.00;;;5.97;;
13967;SDS011;39536;52.198;9.920;2023-08-06T04:51:36;7.67;;;6.63;;
13967;SDS011;39536;52.198;9.920;2023-08-06T04:54:02;6.20;;;5.70;;
13967;SDS011;39536;52.198;9.920;2023-08-06T04:56:29;6.57;;;5.93;;
13967;SDS011;39536;52.198;9.920;2023-08-06T04:58:57;6.27;;;5.70;;
13967;SDS011;39536;52.198;9.920;2023-08-06T05:01:24;9.07;;;5.53;;
13967;SDS011;39536;52.198;9.920;2023-08-06T05:03:52;8.10;;;5.70;;
13967;SDS011;39536;52.198;9.920;2023-08-06T05:06:19;7.00;;;6.00;;
13967;SDS011;39536;52.198;9.920;2023-08-06T05:08:46;6.97;;;5.73;;
13967;SDS011;39536;52.198;9.920;2023-08-06T05:11:12;5.90;;;5.50;;
13967;SDS011;39536;52.198;9.920;2023-08-06T05:13:39;8.03;;;6.10;;
13967;SDS011;39536;52.198;9.920;2023-08-06T05:16:05;5.90;;;5.30;;
13967;SDS011;39536;52.198;9.920;2023-08-06T05:18:32;6.77;;;6.17;;
13967;SDS011;39536;52.198;9.920;2023-08-06T05:21:01;6.47;;;5.87;;
13967;SDS011;39536;52.198;9.920;2023-08-06T05:23:27;6.03;;;5.43;;
13967;SDS011;39536;52.198;9.920;2023-08-06T05:25:54;9.53;;;5.80;;
13967;SDS011;39536;52.198;9.920;2023-08-06T05:28:21;10.23;;;5.10;;
13967;SDS011;39536;52.198;9.920;2023-08-06T05:30:47;4.97;;;4.20;;
13967;SDS011;39536;52.198;9.920;2023-08-06T05:33:14;5.70;;;4.97;;
13967;SDS011;39536;52.198;9.920;2023-08-06T05:35:41;6.30;;;5.10;;
13967;SDS011;39536;52.198;9.920;2023-08-06T05:38:09;5.90;;;5.30;;
13967;SDS011;39536;52.198;9.920;2023-08-06T05:40:35;6.43;;;4.43;;
13967;SDS011;39536;52.198;9.920;2023-08-06T05:43:02;6.37;;;5.10;;
13967;SDS011;39536;52.198;9.920;2023-08-06T05:45:29;5.77;;;5.20;;
13967;SDS011;39536;52.198;9.920;2023-08-06T05:47:55;5.53;;;4.93;;
13967;SDS011;39536;52.198;9.920;2023-08-06T05:50:23;7.10;;;4.97;;
13967;SDS011;39536;52.198;9.920;2023-08-06T05:52:50;5.37;;;4.87;;
13967;SDS011;39536;52.198;9.920;2023-08-06T05:55:19;5.27;;;4.77;;
13967;SDS011;39536;52.198;9.920;2023-08-06T05:57:46;5.70;;;5.30;;
13967;SDS011;39536;52.198;9.920;2023-08-06T06:00:13;7.77;;;5.30;;
13967;SDS011;39536;52.198;9.920;2023-08-06T06:02:40;6.87;;;5.00;;
13967;SDS011;39536;52.198;9.920;2023-08-06T06:05:07;6.83;;;5.27;;
13967;SDS011;39536;52.198;9.920;2023-08-06T06:07:34;5.07;;;4.77;;
13967;SDS011;39536;52.198;9.920;2023-08-06T06:10:01;5.40;;;5.00;;
13967;SDS011;39536;52.198;9.920;2023-08-06T06:12:29;8.63;;;5.40;;
13967;SDS011;39536;52.198;9.920;2023-08-06T06:14:56;5.90;;;4.93;;
13967;SDS011;39536;52.198;9.920;2023-08-06T06:17:22;7.23;;;4.77;;
13967;SDS011;39536;52.198;9.920;2023-08-06T06:19:49;4.90;;;4.50;;
13967;SDS011;39536;52.198;9.920;2023-08-06T06:22:15;4.17;;;3.93;;
13967;SDS011;39536;52.198;9.920;2023-08-06T06:24:41;5.37;;;4.97;;
13967;SDS011;39536;52.198;9.920;2023-08-06T06:27:08;4.80;;;4.50;;
13967;SDS011;39536;52.198;9.920;2023-08-06T06:29:36;5.60;;;4.13;;
13967;SDS011;39536;52.198;9.920;2023-08-06T06:32:03;5.20;;;4.80;;
13967;SDS011;39536;52.198;9.920;2023-08-06T06:34:30;4.97;;;4.53;;
13967;SDS011;39536;52.198;9.920;2023-08-06T06:36:56;4.70;;;4.40;;
13967;SDS011;39536;52.198;9.920;2023-08-06T06:39:23;4.80;;;4.50;;
13967;SDS011;39536;52.198;9.920;2023-08-06T06:41:50;4.30;;;3.90;;
13967;SDS011;39536;52.198;9.920;2023-08-06T06:44:16;7.17;;;3.90;;
13967;SDS011;39536;52.198;9.920;2023-08-06T06:46:46;4.67;;;4.37;;
13967;SDS011;39536;52.198;9.920;2023-08-06T06:49:13;3.33;;;3.13;;
13967;SDS011;39536;52.198;9.920;2023-08-06T06:51:39;3.30;;;3.03;;
13967;SDS011;39536;52.198;9.920;2023-08-06T06:54:06;4.97;;;3.20;;
13967;SDS011;39536;52.198;9.920;2023-08-06T06:56:33;4.23;;;3.83;;
13967;SDS011;39536;52.198;9.920;2023-08-06T06:58:59;3.73;;;3.50;;
13967;SDS011;39536;52.198;9.920;2023-08-06T07:01:26;3.17;;;3.00;;
13967;SDS011;39536;52.198;9.920;2023-08-06T07:03:54;2.97;;;2.77;;
13967;SDS011;39536;52.198;9.920;2023-08-06T07:06:22;3.97;;;2.90;;
13967;SDS011;39536;52.198;9.920;2023-08-06T07:08:48;2.80;;;2.60;;
13967;SDS011;39536;52.198;9.920;2023-08-06T07:11:15;2.57;;;2.47;;
13967;SDS011;39536;52.198;9.920;2023-08-06T07:13:42;3.87;;;2.77;;
13967;SDS011;39536;52.198;9.920;2023-08-06T07:16:08;2.40;;;2.20;;
13967;SDS011;39536;52.198;9.920;2023-08-06T07:18:35;2.83;;;2.33;;
13967;SDS011;39536;52.198;9.920;2023-08-06T07:21:03;2.67;;;2.47;;
13967;SDS011;39536;52.198;9.920;2023-08-06T07:23:30;2.20;;;2.10;;
13967;SDS011;39536;52.198;9.920;2023-08-06T07:25:56;2.60;;;2.40;;
13967;SDS011;39536;52.198;9.920;2023-08-06T07:28:23;2.43;;;2.17;;
13967;SDS011;39536;52.198;9.920;2023-08-06T07:30:50;2.73;;;2.50;;
13967;SDS011;39536;52.198;9.920;2023-08-06T07:33:16;2.93;;;2.70;;
13967;SDS011;39536;52.198;9.920;2023-08-06T07:35:43;5.00;;;2.27;;
13967;SDS011;39536;52.198;9.920;2023-08-06T07:38:11;2.53;;;2.33;;
13967;SDS011;39536;52.198;9.920;2023-08-06T07:40:38;3.93;;;2.63;;
13967;SDS011;39536;52.198;9.920;2023-08-06T07:43:06;2.63;;;2.43;;
13967;SDS011;39536;52.198;9.920;2023-08-06T07:45:33;2.80;;;2.70;;
13967;SDS011;39536;52.198;9.920;2023-08-06T07:48:00;2.63;;;2.37;;
13967;SDS011;39536;52.198;9.920;2023-08-06T07:50:27;3.37;;;2.30;;
13967;SDS011;39536;52.198;9.920;2023-08-06T07:52:54;2.63;;;2.43;;
13967;SDS011;39536;52.198;9.920;2023-08-06T07:55:22;4.33;;;2.27;;
13967;SDS011;39536;52.198;9.920;2023-08-06T07:57:49;2.17;;;2.07;;
13967;SDS011;39536;52.198;9.920;2023-08-06T08:00:16;2.30;;;2.20;;
13967;SDS011;39536;52.198;9.920;2023-08-06T08:02:42;2.57;;;2.37;;
13967;SDS011;39536;52.198;9.920;2023-08-06T08:05:11;2.27;;;2.17;;
13967;SDS011;39536;52.198;9.920;2023-08-06T08:07:37;2.10;;;2.00;;
13967;SDS011;39536;52.198;9.920;2023-08-06T08:10:05;2.10;;;2.00;;
13967;SDS011;39536;52.198;9.920;2023-08-06T08:12:34;2.53;;;2.43;;
13967;SDS011;39536;52.198;9.920;2023-08-06T08:15:00;5.90;;;2.33;;
13967;SDS011;39536;52.198;9.920;2023-08-06T08:17:28;2.83;;;2.57;;
13967;SDS011;39536;52.198;9.920;2023-08-06T08:19:55;2.20;;;2.10;;
13967;SDS011;39536;52.198;9.920;2023-08-06T08:22:21;3.07;;;2.80;;
13967;SDS011;39536;52.198;9.920;2023-08-06T08:24:48;4.37;;;2.20;;
13967;SDS011;39536;52.198;9.920;2023-08-06T08:27:15;2.77;;;2.53;;
13967;SDS011;39536;52.198;9.920;2023-08-06T08:29:43;2.90;;;2.63;;
13967;SDS011;39536;52.198;9.920;2023-08-06T08:32:09;2.07;;;1.97;;
13967;SDS011;39536;52.198;9.920;2023-08-06T08:34:36;2.30;;;2.10;;
13967;SDS011;39536;52.198;9.920;2023-08-06T08:37:03;2.97;;;2.33;;
13967;SDS011;39536;52.198;9.920;2023-08-06T08:39:31;2.90;;;2.80;;
13967;SDS011;39536;52.198;9.920;2023-08-06T08:41:57;2.83;;;2.63;;
13967;SDS011;39536;52.198;9.920;2023-08-06T08:44:24;2.90;;;2.60;;
13967;SDS011;39536;52.198;9.920;2023-08-06T08:46:55;2.60;;;2.40;;
13967;SDS011;39536;52.198;9.920;2023-08-06T08:49:23;2.70;;;2.50;;
13967;SDS011;39536;52.198;9.920;2023-08-06T08:51:52;2.50;;;2.40;;
13967;SDS011;39536;52.198;9.920;2023-08-06T08:54:19;2.70;;;2.60;;
13967;SDS011;39536;52.198;9.920;2023-08-06T08:56:49;2.63;;;2.40;;
13967;SDS011;39536;52.198;9.920;2023-08-06T08:59:15;2.30;;;2.20;;
13967;SDS011;39536;52.198;9.920;2023-08-06T09:01:42;2.90;;;2.50;;
13967;SDS011;39536;52.198;9.920;2023-08-06T09:04:16;2.73;;;2.60;;
13967;SDS011;39536;52.198;9.920;2023-08-06T09:06:43;2.53;;;2.33;;
13967;SDS011;39536;52.198;9.920;2023-08-06T09:09:13;3.30;;;2.40;;
13967;SDS011;39536;52.198;9.920;2023-08-06T09:11:48;2.50;;;2.30;;
13967;SDS011;39536;52.198;9.920;2023-08-06T09:14:15;2.20;;;2.10;;
13967;SDS011;39536;52.198;9.920;2023-08-06T09:16:43;2.83;;;2.63;;
13967;SDS011;39536;52.198;9.920;2023-08-06T09:19:10;2.60;;;2.50;;
13967;SDS011;39536;52.198;9.920;2023-08-06T09:21:39;2.57;;;2.40;;
13967;SDS011;39536;52.198;9.920;2023-08-06T09:24:09;2.70;;;2.53;;
13967;SDS011;39536;52.198;9.920;2023-08-06T09:26:36;4.63;;;2.43;;
13967;SDS011;39536;52.198;9.920;2023-08-06T09:29:04;2.47;;;2.27;;
13967;SDS011;39536;52.198;9.920;2023-08-06T09:31:38;2.60;;;2.40;;
13967;SDS011;39536;52.198;9.920;2023-08-06T09:34:10;2.37;;;2.27;;
13967;SDS011;39536;52.198;9.920;2023-08-06T09:36:40;2.60;;;2.40;;
13967;SDS011;39536;52.198;9.920;2023-08-06T09:39:12;2.30;;;2.20;;
13967;SDS011;39536;52.198;9.920;2023-08-06T09:41:39;2.50;;;2.40;;
13967;SDS011;39536;52.198;9.920;2023-08-06T09:44:06;2.87;;;2.10;;
13967;SDS011;39536;52.198;9.920;2023-08-06T09:46:46;2.23;;;2.13;;
13967;SDS011;39536;52.198;9.920;2023-08-06T09:49:14;2.80;;;2.60;;
13967;SDS011;39536;52.198;9.920;2023-08-06T09:51:42;2.27;;;2.17;;
13967;SDS011;39536;52.198;9.920;2023-08-06T09:54:09;2.10;;;2.00;;
13967;SDS011;39536;52.198;9.920;2023-08-06T09:56:38;2.37;;;2.20;;
13967;SDS011;39536;52.198;9.920;2023-08-06T09:59:06;2.67;;;2.47;;
13967;SDS011;39536;52.198;9.920;2023-08-06T10:01:34;2.53;;;2.37;;
13967;SDS011;39536;52.198;9.920;2023-08-06T10:04:01;2.70;;;2.33;;
13967;SDS011;39536;52.198;9.920;2023-08-06T10:06:29;2.40;;;2.30;;
13967;SDS011;39536;52.198;9.920;2023-08-06T10:09:01;2.33;;;2.17;;
13967;SDS011;39536;52.198;9.920;2023-08-06T10:11:28;2.53;;;2.20;;
13967;SDS011;39536;52.198;9.920;2023-08-06T10:13:57;2.30;;;2.20;;
13967;SDS011;39536;52.198;9.920;2023-08-06T10:16:28;2.90;;;2.43;;
13967;SDS011;39536;52.198;9.920;2023-08-06T10:18:56;2.43;;;2.13;;
13967;SDS011;39536;52.198;9.920;2023-08-06T10:21:23;1.93;;;1.83;;
13967;SDS011;39536;52.198;9.920;2023-08-06T10:23:53;2.13;;;2.03;;
13967;SDS011;39536;52.198;9.920;2023-08-06T10:26:21;2.33;;;2.17;;
13967;SDS011;39536;52.198;9.920;2023-08-06T10:28:51;2.27;;;2.07;;
13967;SDS011;39536;52.198;9.920;2023-08-06T10:31:18;2.10;;;2.00;;
13967;SDS011;39536;52.198;9.920;2023-08-06T10:33:45;2.00;;;1.90;;
13967;SDS011;39536;52.198;9.920;2023-08-06T10:36:14;2.10;;;2.00;;
13967;SDS011;39536;52.198;9.920;2023-08-06T10:38:44;2.93;;;2.10;;
13967;SDS011;39536;52.198;9.920;2023-08-06T10:41:27;1.87;;;1.77;;
13967;SDS011;39536;52.198;9.920;2023-08-06T10:44:00;2.13;;;2.03;;
13967;SDS011;39536;52.198;9.920;2023-08-06T10:46:31;1.70;;;1.60;;
13967;SDS011;39536;52.198;9.920;2023-08-06T10:48:58;1.80;;;1.70;;
13967;SDS011;39536;52.198;9.920;2023-08-06T10:51:25;2.20;;;2.10;;
13967;SDS011;39536;52.198;9.920;2023-08-06T10:53:52;2.90;;;1.97;;
13967;SDS011;39536;52.198;9.920;2023-08-06T10:56:20;2.20;;;2.10;;
13967;SDS011;39536;52.198;9.920;2023-08-06T10:58:50;2.00;;;1.90;;
13967;SDS011;39536;52.198;9.920;2023-08-06T11:01:18;2.00;;;1.90;;
13967;SDS011;39536;52.198;9.920;2023-08-06T11:03:45;2.17;;;2.03;;
13967;SDS011;39536;52.198;9.920;2023-08-06T11:06:16;1.83;;;1.73;;
13967;SDS011;39536;52.198;9.920;2023-08-06T11:08:46;2.10;;;2.00;;
13967;SDS011;39536;52.198;9.920;2023-08-06T11:11:15;2.00;;;1.90;;
13967;SDS011;39536;52.198;9.920;2023-08-06T11:13:43;2.17;;;2.00;;
13967;SDS011;39536;52.198;9.920;2023-08-06T11:16:12;3.10;;;1.80;;
13967;SDS011;39536;52.198;9.920;2023-08-06T11:18:40;2.47;;;1.90;;
13967;SDS011;39536;52.198;9.920;2023-08-06T11:21:07;1.90;;;1.80;;
13967;SDS011;39536;52.198;9.920;2023-08-06T11:23:34;2.17;;;2.00;;
13967;SDS011;39536;52.198;9.920;2023-08-06T11:26:01;1.90;;;1.80;;
13967;SDS011;39536;52.198;9.920;2023-08-06T11:28:28;2.07;;;1.70;;
13967;SDS011;39536;52.198;9.920;2023-08-06T11:30:55;2.33;;;1.80;;
13967;SDS011;39536;52.198;9.920;2023-08-06T11:33:27;2.50;;;2.30;;
13967;SDS011;39536;52.198;9.920;2023-08-06T11:35:55;3.43;;;2.10;;
13967;SDS011;39536;52.198;9.920;2023-08-06T11:38:24;2.40;;;1.90;;
13967;SDS011;39536;52.198;9.920;2023-08-06T11:40:51;2.30;;;2.10;;
13967;SDS011;39536;52.198;9.920;2023-08-06T11:43:18;2.77;;;2.07;;
13967;SDS011;39536;52.198;9.920;2023-08-06T11:45:45;1.90;;;1.80;;
13967;SDS011;39536;52.198;9.920;2023-08-06T11:48:13;2.03;;;1.83;;
13967;SDS011;39536;52.198;9.920;2023-08-06T11:50:41;1.80;;;1.70;;
13967;SDS011;39536;52.198;9.920;2023-08-06T11:53:11;1.90;;;1.80;;
13967;SDS011;39536;52.198;9.920;2023-08-06T11:55:38;1.90;;;1.80;;
13967;SDS011;39536;52.198;9.920;2023-08-06T11:58:05;1.80;;;1.77;;
13967;SDS011;39536;52.198;9.920;2023-08-06T12:00:32;1.93;;;1.83;;
13967;SDS011;39536;52.198;9.920;2023-08-06T12:02:59;2.33;;;2.17;;
13967;SDS011;39536;52.198;9.920;2023-08-06T12:05:29;1.90;;;1.80;;
13967;SDS011;39536;52.198;9.920;2023-08-06T12:07:59;1.90;;;1.80;;
13967;SDS011;39536;52.198;9.920;2023-08-06T12:10:28;2.10;;;2.00;;
13967;SDS011;39536;52.198;9.920;2023-08-06T12:12:55;1.83;;;1.73;;
13967;SDS011;39536;52.198;9.920;2023-08-06T12:15:22;1.90;;;1.70;;
13967;SDS011;39536;52.198;9.920;2023-08-06T12:17:49;1.87;;;1.77;;
13967;SDS011;39536;52.198;9.920;2023-08-06T12:20:16;1.97;;;1.80;;
13967;SDS011;39536;52.198;9.920;2023-08-06T12:22:43;1.70;;;1.60;;
13967;SDS011;39536;52.198;9.920;2023-08-06T12:25:12;2.47;;;1.87;;
13967;SDS011;39536;52.198;9.920;2023-08-06T12:27:39;1.90;;;1.80;;
13967;SDS011;39536;52.198;9.920;2023-08-06T12:30:07;2.20;;;2.07;;
13967;SDS011;39536;52.198;9.920;2023-08-06T12:32:34;2.07;;;1.97;;
13967;SDS011;39536;52.198;9.920;2023-08-06T12:35:01;1.70;;;1.60;;
13967;SDS011;39536;52.198;9.920;2023-08-06T12:37:29;2.23;;;1.80;;
13967;SDS011;39536;52.198;9.920;2023-08-06T12:39:55;1.90;;;1.80;;
13967;SDS011;39536;52.198;9.920;2023-08-06T12:42:23;2.10;;;2.00;;
13967;SDS011;39536;52.198;9.920;2023-08-06T12:44:50;2.10;;;2.00;;
13967;SDS011;39536;52.198;9.920;2023-08-06T12:47:17;1.70;;;1.60;;
13967;SDS011;39536;52.198;9.920;2023-08-06T12:49:45;1.97;;;1.87;;
13967;SDS011;39536;52.198;9.920;2023-08-06T12:52:11;2.57;;;2.37;;
13967;SDS011;39536;52.198;9.920;2023-08-06T12:54:40;2.13;;;2.03;;
13967;SDS011;39536;52.198;9.920;2023-08-06T12:57:07;2.23;;;2.13;;
13967;SDS011;39536;52.198;9.920;2023-08-06T12:59:35;2.00;;;1.90;;
13967;SDS011;39536;52.198;9.920;2023-08-06T13:02:02;2.57;;;2.27;;
13967;SDS011;39536;52.198;9.920;2023-08-06T13:04:29;2.20;;;2.10;;
13967;SDS011;39536;52.198;9.920;2023-08-06T13:06:56;2.87;;;2.70;;
13967;SDS011;39536;52.198;9.920;2023-08-06T13:09:22;2.90;;;2.70;;
13967;SDS011;39536;52.198;9.920;2023-08-06T13:11:49;2.63;;;2.50;;
13967;SDS011;39536;52.198;9.920;2023-08-06T13:14:16;2.50;;;2.30;;
13967;SDS011;39536;52.198;9.920;2023-08-06T13:16:44;2.90;;;2.70;;
13967;SDS011;39536;52.198;9.920;2023-08-06T13:19:11;2.73;;;2.63;;
13967;SDS011;39536;52.198;9.920;2023-08-06T13:21:58;2.57;;;2.37;;
13967;SDS011;39536;52.198;9.920;2023-08-06T13:24:25;2.67;;;2.47;;
13967;SDS011;39536;52.198;9.920;2023-08-06T13:26:52;4.03;;;2.50;;
13967;SDS011;39536;52.198;9.920;2023-08-06T13:29:19;2.50;;;2.37;;
13967;SDS011;39536;52.198;9.920;2023-08-06T13:31:47;3.07;;;2.87;;
13967;SDS011;39536;52.198;9.920;2023-08-06T13:34:14;2.40;;;2.30;;
13967;SDS011;39536;52.198;9.920;2023-08-06T13:36:41;3.23;;;2.50;;
13967;SDS011;39536;52.198;9.920;2023-08-06T13:39:08;2.63;;;2.43;;
13967;SDS011;39536;52.198;9.920;2023-08-06T13:41:35;3.13;;;2.93;;
13967;SDS011;39536;52.198;9.920;2023-08-06T13:44:03;3.03;;;2.83;;
13967;SDS011;39536;52.198;9.920;2023-08-06T13:46:30;2.80;;;2.70;;
13967;SDS011;39536;52.198;9.920;2023-08-06T13:48:58;3.00;;;2.80;;
13967;SDS011;39536;52.198;9.920;2023-08-06T13:51:25;2.60;;;2.50;;
13967;SDS011;39536;52.198;9.920;2023-08-06T13:53:51;3.03;;;2.83;;
13967;SDS011;39536;52.198;9.920;2023-08-06T13:56:19;4.70;;;2.67;;
13967;SDS011;39536;52.198;9.920;2023-08-06T13:58:45;2.50;;;2.40;;
13967;SDS011;39536;52.198;9.920;2023-08-06T14:01:12;2.90;;;2.70;;
13967;SDS011;39536;52.198;9.920;2023-08-06T14:03:39;2.80;;;2.60;;
13967;SDS011;39536;52.198;9.920;2023-08-06T14:06:07;2.50;;;2.40;;
13967;SDS011;39536;52.198;9.920;2023-08-06T14:08:34;2.60;;;2.50;;
13967;SDS011;39536;52.198;9.920;2023-08-06T14:11:00;3.20;;;3.00;;
13967;SDS011;39536;52.198;9.920;2023-08-06T14:13:27;2.77;;;2.63;;
13967;SDS011;39536;52.198;9.920;2023-08-06T14:15:54;2.70;;;2.60;;
13967;SDS011;39536;52.198;9.920;2023-08-06T14:18:20;2.80;;;2.60;;
13967;SDS011;39536;52.198;9.920;2023-08-06T14:20:47;2.97;;;2.77;;
13967;SDS011;39536;52.198;9.920;2023-08-06T14:23:15;2.50;;;2.40;;
13967;SDS011;39536;52.198;9.920;2023-08-06T14:25:41;3.03;;;2.93;;
13967;SDS011;39536;52.198;9.920;2023-08-06T14:28:08;2.90;;;2.70;;
13967;SDS011;39536;52.198;9.920;2023-08-06T14:30:35;3.60;;;2.53;;
13967;SDS011;39536;52.198;9.920;2023-08-06T14:33:02;3.10;;;2.93;;
13967;SDS011;39536;52.198;9.920;2023-08-06T14:35:29;3.47;;;3.27;;
13967;SDS011;39536;52.198;9.920;2023-08-06T14:37:56;3.13;;;2.83;;
13967;SDS011;39536;52.198;9.920;2023-08-06T14:40:24;3.33;;;3.00;;
13967;SDS011;39536;52.198;9.920;2023-08-06T14:42:53;3.27;;;3.07;;
13967;SDS011;39536;52.198;9.920;2023-08-06T14:45:20;2.97;;;2.77;;
13967;SDS011;39536;52.198;9.920;2023-08-06T14:47:46;2.60;;;2.50;;
13967;SDS011;39536;52.198;9.920;2023-08-06T14:50:13;2.90;;;2.70;;